Aérodrome :
LOGIN :

S'inscrire | Disclaimer

   EN    FR    IT 

 










Légende :    VFR   VFR Marginal   IFR   IFR Intensif   IFR Très Intensif
Visi : 
Plafond : 
>= 8 km
>= 3000ft
5 à 8 km
1000 à 3000 ft
1500m à 5 km
500 à 1000 ft
800 à 1500m
200 à 500 ft
< 800m
< 200 ft
Symboles :   Orages  Brouillard  Fortes neiges  Fortes précipitations  Vent > 20 kt
SIGMETs :   Divers  Orages  Givrage  Turbulence  Onde Orograph.  Cendres Volcan.







- Altitude de l'aérodrome : 209 ft
- Code IATA : CLY
- Voir les cartes d'approche


LFKC - Calvi

DERNIER METAR :
  • 181930Z AUTO 20006KT 9999 SCT032 07/05 Q1026

METARs EXPIRÉS :
  • 181900Z AUTO 21006KT 9999 BKN032 07/05 Q1026 NOSIG
  • 181830Z AUTO 18003KT 9999 BKN033 07/05 Q1026 NOSIG
  • 181800Z AUTO 18003KT 9999 BKN032 06/04 Q1026 NOSIG
  • 181730Z AUTO 22005KT 9999 BKN029 BKN036 07/04 Q1026 NOSIG
  • 181700Z AUTO 20005KT 9999 BKN027 BKN035 07/05 Q1026 NOSIG
  • 181630Z AUTO 19005KT CAVOK 07/05 Q1026 NOSIG

TAF TAF LFKC
Valide du 18 à 15h jusqu'au 19 à 15h UTC


181400Z 1815/1915 35005KT CAVOK TX13/1913Z TN04/1906Z
BECMG 1815/1818 18005KT
BECMG 1910/1912 02005KT
ATIS : +33 4 95 65 82 49
Pas de NOTAMs connus pour ce terrain.
2 SIGMETs publiés pour la FIR Marseille (LFMM) :
 
Turbulence forte
LFMM SIGMET 3 VALID 181600/182000 LFPW
LFMM MARSEILLE FIR/UIR SEV TURB FCST WI N4630 E00430 - N4630 E00530 - N4445 E00515 - N4445 E00430 - N4630 E00430 SFC/FL050 STNR NC=
Turbulence forte
LFMM SIGMET 2 VALID 181600/182000 LFPW
LFMM MARSEILLE FIR/UIR SEV TURB FCST WI N4300 E00230 - N4500 E00245 - N4430 E00400 - N4300 E00230 SFC/FL060 STNR WKN=



MET'MAP, la Météo Aéronautique d'un coup d'oeil ! - Copyright ORBIFLY Décembre 2007 - Disclaimer

ORBIFLY MET'MAP TEAM :

Programmation & Développement : Alexandra Zaïnal
Conception & Développement : Baudouin d'Aumeries
Co-Programmation & Développement : Marc-Olivier Méhu
Soutien technique & logistique : Manuel Goepfert

Contact : metmap@orbifly.com




SOURCES & CREDITS :

   NOAA